MTH weather

The Florida Keys Marathon Airport
Marathon, Florida, United States

Public forecast

Using degrees Fahrenheit for public forecast. Weather courtesy of forecast.io.

Current aviation weather report (METAR) for The Florida Keys Marathon Airport

Retrieved 2019/11/18 07:21 UTC (23 minutes ago):

KMTH 180721Z AUTO 01007KT 10SM OVC014 18/15 A2987 RMK AO2 T01780150

Aviation forecast (TAF) for The Florida Keys Marathon Airport

Retrieved 2019/11/18 06:22 UTC (1 hour ago):

TAF KMTH 180520Z 1806/1906 35007KT P6SM SCT015 TEMPO 1806/1810 BKN015 FM181600 32007KT P6SM SCT025 SCT035